KEPH/EPH METAR and TAF weather

Enter ICAO airport designator
Station Type Date Time Source
KEPH METAR 2020/07/08 20:53 UTC NOAA

KEPH 082053Z AUTO 23007KT 190V270 10SM CLR 25/05 A2998 RMK AO2 SLP147 T02500050 58010


Station Type Date Time Source
KEPH Decoded METAR 2020/07/08 20:53 UTC NOAA

EPHRATA MUNICIPAL AIRPORT, WA, United States (KEPH) 47-18N 119-31W 383M
Jul 08, 2020 - 04:53 PM EDT / 2020.07.08 2053 UTC
Wind: from the SW (230 degrees) at 8 MPH (7 KT) (direction variable):0
Visibility: 10 mile(s):0
Sky conditions: clear
Temperature: 77.0 F (25.0 C)
Dew Point: 41.0 F (5.0 C)
Relative Humidity: 27%
Pressure (altimeter): 29.98 in. Hg (1015 hPa)
Pressure tendency: 0.03 inches (1.0 hPa) lower than three hours ago
ob: KEPH 082053Z AUTO 23007KT 190V270 10SM CLR 25/05 A2998 RMK AO2 SLP147 T02500050 58010
cycle: 21

Station Type Date Time Source
KEPH TAF UTC NOAA

Error!

Example: see airport list